createdAt,value
2018-09-04T00:01:34.742Z,92.91
2018-09-04T00:04:02.444Z,92.42
2018-09-04T00:06:30.171Z,92.05
2018-09-04T00:08:57.860Z,91.29
2018-09-04T00:11:25.560Z,91.19
2018-09-04T00:13:53.260Z,90.57
2018-09-04T00:16:21.324Z,90.39
2018-09-04T00:18:49.012Z,90.48
2018-09-04T00:21:16.699Z,90.43
2018-09-04T00:23:44.399Z,90.88
2018-09-04T00:26:12.052Z,91.73
2018-09-04T00:28:39.716Z,91.13
2018-09-04T00:31:07.403Z,92.29
2018-09-04T00:33:35.124Z,91.54
2018-09-04T00:36:02.822Z,91.35
2018-09-04T00:38:30.561Z,91.88
2018-09-04T00:40:58.255Z,91.77
2018-09-04T00:43:25.942Z,91.61
2018-09-04T00:45:53.642Z,92.40
2018-09-04T00:48:21.443Z,91.81
2018-09-04T00:50:50.044Z,91.97
2018-09-04T00:53:17.732Z,92.54
2018-09-04T00:55:45.455Z,92.64
2018-09-04T00:58:13.325Z,92.58
2018-09-04T01:00:41.080Z,92.74
2018-09-04T01:03:08.753Z,92.11
2018-09-04T01:05:36.468Z,92.06
2018-09-04T01:08:04.216Z,91.40
2018-09-04T01:10:31.885Z,91.70
2018-09-04T01:12:59.591Z,92.30
2018-09-04T01:15:27.319Z,92.08
2018-09-04T01:17:54.989Z,91.01
2018-09-04T01:20:22.760Z,90.82
2018-09-04T01:22:50.492Z,90.37
2018-09-04T01:25:18.192Z,90.90
2018-09-04T01:27:45.851Z,91.48
2018-09-04T01:30:13.560Z,91.47
2018-09-04T01:32:41.235Z,91.30
2018-09-04T01:35:08.951Z,90.85
2018-09-04T01:37:36.624Z,90.66
2018-09-04T01:40:04.400Z,90.78
2018-09-04T01:42:32.118Z,90.46
2018-09-04T01:44:59.846Z,90.73
2018-09-04T01:47:27.516Z,90.76
2018-09-04T01:49:55.211Z,90.87
2018-09-04T01:52:23.015Z,90.71
2018-09-04T01:54:50.699Z,90.83
2018-09-04T01:57:18.375Z,90.66
2018-09-04T01:59:46.081Z,90.48
2018-09-04T02:02:13.767Z,90.43
2018-09-04T02:04:41.468Z,90.36
2018-09-04T02:07:09.154Z,90.85
2018-09-04T02:09:36.864Z,90.25
2018-09-04T02:12:04.567Z,89.66
2018-09-04T02:14:32.287Z,89.78
2018-09-04T02:16:59.967Z,89.33
2018-09-04T02:19:27.635Z,89.68
2018-09-04T02:21:55.355Z,90.12
2018-09-04T02:24:23.039Z,89.66
2018-09-04T02:26:50.692Z,89.60
2018-09-04T02:29:18.379Z,89.53
2018-09-04T02:31:46.071Z,89.62
2018-09-04T02:34:13.792Z,89.88
2018-09-04T02:36:41.540Z,89.75
2018-09-04T02:39:10.940Z,89.62
2018-09-04T02:41:38.613Z,89.51
2018-09-04T02:44:06.619Z,89.37
2018-09-04T02:46:34.760Z,89.71
2018-09-04T02:49:02.447Z,89.05
2018-09-04T02:51:30.134Z,89.22
2018-09-04T02:53:58.089Z,89.03
2018-09-04T02:56:25.787Z,89.07
2018-09-04T02:58:53.591Z,88.56
2018-09-04T03:01:21.329Z,89.02
2018-09-04T03:03:49.012Z,89.58
2018-09-04T03:06:16.683Z,89.06
2018-09-04T03:08:44.424Z,88.92
2018-09-04T03:11:12.093Z,88.76
2018-09-04T03:13:39.762Z,87.94
2018-09-04T03:16:07.616Z,88.76
2018-09-04T03:18:35.300Z,88.30
2018-09-04T03:21:02.993Z,88.57
2018-09-04T03:23:30.707Z,88.31
2018-09-04T03:25:58.424Z,88.54
2018-09-04T03:28:26.111Z,88.83
2018-09-04T03:30:53.905Z,88.32
2018-09-04T03:33:21.602Z,88.18
2018-09-04T03:35:49.291Z,88.57
2018-09-04T03:38:17.073Z,89.18
2018-09-04T03:40:44.766Z,89.17
2018-09-04T03:43:12.439Z,88.89
2018-09-04T03:45:40.134Z,89.19
2018-09-04T03:48:08.628Z,88.96
2018-09-04T03:50:36.947Z,88.44
2018-09-04T03:53:04.816Z,88.84
2018-09-04T03:55:32.502Z,88.83
2018-09-04T03:58:00.228Z,88.73
2018-09-04T04:00:27.891Z,88.60
2018-09-04T04:02:55.609Z,88.61
2018-09-04T04:05:23.307Z,88.60
2018-09-04T04:07:51.004Z,88.71
2018-09-04T04:10:18.763Z,88.27
2018-09-04T04:12:46.482Z,88.60
2018-09-04T04:15:14.163Z,87.88
2018-09-04T04:17:41.907Z,87.30
2018-09-04T04:20:09.716Z,87.58
2018-09-04T04:22:37.393Z,87.05
2018-09-04T04:25:05.199Z,87.06
2018-09-04T04:27:32.891Z,87.23
2018-09-04T04:30:00.639Z,87.65
2018-09-04T04:32:28.408Z,87.35
2018-09-04T04:34:56.240Z,87.54
2018-09-04T04:37:23.973Z,87.55
2018-09-04T04:39:51.707Z,87.35
2018-09-04T04:42:19.383Z,86.97
2018-09-04T04:44:47.084Z,86.65
2018-09-04T04:47:14.880Z,86.81
2018-09-04T04:49:42.552Z,86.08
2018-09-04T04:52:10.324Z,86.45
2018-09-04T04:54:38.040Z,86.36
2018-09-04T04:57:05.736Z,86.11
2018-09-04T04:59:33.451Z,86.73
2018-09-04T05:02:01.163Z,86.87
2018-09-04T05:04:28.831Z,86.93
2018-09-04T05:06:56.620Z,87.17
2018-09-04T05:09:24.375Z,86.22
2018-09-04T05:11:52.039Z,85.42
2018-09-04T05:14:19.732Z,83.79
2018-09-04T05:16:47.427Z,83.05
2018-09-04T05:19:15.148Z,82.04
2018-09-04T05:21:42.847Z,80.99
2018-09-04T05:24:10.572Z,80.51
2018-09-04T05:26:38.280Z,80.60
2018-09-04T05:29:06.050Z,78.91
2018-09-04T05:31:38.395Z,78.10
2018-09-04T05:34:06.210Z,79.34
2018-09-04T05:36:33.895Z,80.57
2018-09-04T05:39:01.631Z,81.36
2018-09-04T05:41:29.349Z,80.25
2018-09-04T05:43:58.867Z,78.74
2018-09-04T05:46:57.372Z,77.81
2018-09-04T05:49:28.215Z,76.16
2018-09-04T05:51:55.964Z,76.40
2018-09-04T05:54:23.788Z,77.53
2018-09-04T05:56:51.556Z,78.43
2018-09-04T05:59:19.304Z,78.16
2018-09-04T06:01:46.984Z,76.59
2018-09-04T06:04:14.728Z,75.23
2018-09-04T06:06:42.412Z,74.81
2018-09-04T06:09:10.157Z,74.82
2018-09-04T06:11:37.843Z,74.44
2018-09-04T06:14:05.580Z,74.73
2018-09-04T06:16:33.272Z,75.32
2018-09-04T06:19:01.007Z,75.23
2018-09-04T06:21:28.708Z,74.84
2018-09-04T06:23:56.464Z,74.93
2018-09-04T06:26:24.181Z,74.59
2018-09-04T06:28:51.897Z,73.13
2018-09-04T06:31:19.632Z,72.86
2018-09-04T06:33:47.324Z,72.62
2018-09-04T06:36:15.052Z,72.70
2018-09-04T06:38:42.812Z,72.28
2018-09-04T06:41:10.520Z,71.64
2018-09-04T06:43:38.235Z,71.32
2018-09-04T06:46:05.983Z,70.48
2018-09-04T06:48:34.220Z,69.81
2018-09-04T06:51:01.915Z,69.34
2018-09-04T06:53:29.628Z,69.38
2018-09-04T06:55:57.361Z,68.22
2018-09-04T06:58:25.924Z,67.44
2018-09-04T07:00:53.672Z,67.84
2018-09-04T07:03:21.360Z,68.04
2018-09-04T07:05:49.116Z,67.98
2018-09-04T07:08:16.876Z,64.14
2018-09-04T07:10:44.588Z,64.48
2018-09-04T07:13:12.328Z,63.89
2018-09-04T07:15:40.025Z,63.84
2018-09-04T07:18:07.766Z,64.19
2018-09-04T07:20:35.552Z,63.79
2018-09-04T07:23:03.296Z,63.47
2018-09-04T07:25:30.977Z,63.98
2018-09-04T07:27:58.709Z,63.24
2018-09-04T07:30:26.408Z,62.83
2018-09-04T07:32:54.314Z,63.00
2018-09-04T07:35:22.349Z,63.49
2018-09-04T07:37:50.052Z,63.11
2018-09-04T07:40:17.836Z,58.86
2018-09-04T07:42:45.535Z,59.85
2018-09-04T07:45:13.228Z,62.34
2018-09-04T07:47:41.011Z,63.04
2018-09-04T07:50:09.572Z,62.57
2018-09-04T07:52:37.299Z,62.91
2018-09-04T07:55:05.134Z,64.90
2018-09-04T07:57:32.856Z,65.31
2018-09-04T08:00:00.577Z,65.74
2018-09-04T08:02:28.348Z,63.34
2018-09-04T08:04:56.051Z,62.71
2018-09-04T08:07:23.750Z,61.63
2018-09-04T08:09:51.496Z,59.92
2018-09-04T08:12:19.247Z,60.29
2018-09-04T08:14:47.048Z,59.79
2018-09-04T08:17:14.788Z,58.83
2018-09-04T08:19:42.520Z,59.14
2018-09-04T08:22:10.268Z,57.25
2018-09-04T08:24:37.987Z,56.55
2018-09-04T08:27:06.028Z,56.27
2018-09-04T08:29:33.768Z,55.75
2018-09-04T08:32:01.444Z,52.42
2018-09-04T08:34:29.203Z,54.55
2018-09-04T08:36:56.953Z,55.03
2018-09-04T08:39:24.644Z,55.36
2018-09-04T08:41:52.386Z,55.03
2018-09-04T08:44:20.136Z,56.16
2018-09-04T08:46:47.840Z,56.51
2018-09-04T08:49:16.524Z,55.97
2018-09-04T08:51:44.222Z,53.39
2018-09-04T08:54:11.981Z,50.86
2018-09-04T08:56:39.676Z,51.17
2018-09-04T08:59:07.368Z,50.89
2018-09-04T09:01:35.077Z,50.74
2018-09-04T09:04:02.805Z,52.41
2018-09-04T09:06:30.539Z,50.26
2018-09-04T09:08:58.228Z,48.90
2018-09-04T09:11:25.944Z,49.08
2018-09-04T09:13:53.656Z,48.09
2018-09-04T09:16:21.355Z,48.55
2018-09-04T09:18:49.103Z,49.22
2018-09-04T09:21:16.840Z,46.92
2018-09-04T09:23:44.528Z,46.35
2018-09-04T09:26:12.312Z,46.71
2018-09-04T09:28:40.035Z,47.76
2018-09-04T09:31:07.788Z,45.35
2018-09-04T09:33:35.517Z,45.59
2018-09-04T09:36:03.231Z,44.86
2018-09-04T09:38:30.961Z,44.71
2018-09-04T09:40:58.701Z,46.75
2018-09-04T09:43:26.551Z,47.90
2018-09-04T09:45:54.257Z,47.35
2018-09-04T09:48:22.040Z,46.01
2018-09-04T09:50:49.773Z,47.05
2018-09-04T09:53:17.606Z,45.81
2018-09-04T09:55:45.312Z,45.38
2018-09-04T09:58:13.000Z,46.55
2018-09-04T10:00:46.288Z,45.88
2018-09-04T10:03:20.295Z,45.04
2018-09-04T10:05:48.067Z,44.59
2018-09-04T10:08:15.771Z,44.73
2018-09-04T10:10:43.564Z,44.99
2018-09-04T10:13:11.323Z,44.82
2018-09-04T10:15:39.076Z,44.92
2018-09-04T10:18:06.776Z,45.53
2018-09-04T10:20:34.516Z,45.12
2018-09-04T10:23:02.307Z,42.86
2018-09-04T10:25:30.032Z,42.13
2018-09-04T10:27:57.752Z,42.91
2018-09-04T10:30:25.505Z,43.26
2018-09-04T10:32:54.035Z,45.29
2018-09-04T10:35:22.363Z,45.88
2018-09-04T10:37:50.789Z,45.55
2018-09-04T10:40:24.423Z,46.78
2018-09-04T10:42:52.420Z,46.42
2018-09-04T10:45:25.617Z,45.21
2018-09-04T10:47:53.730Z,47.16
2018-09-04T10:50:21.893Z,47.06
2018-09-04T10:52:49.740Z,46.84
2018-09-04T10:55:17.565Z,47.02
2018-09-04T10:57:45.458Z,45.34
2018-09-04T11:00:14.344Z,44.54
2018-09-04T11:02:42.157Z,42.36
2018-09-04T11:05:09.996Z,44.14
2018-09-04T11:07:37.773Z,44.02
2018-09-04T11:10:05.618Z,44.15
2018-09-04T11:12:33.416Z,44.03
2018-09-04T11:15:01.156Z,45.17
2018-09-04T11:17:28.860Z,45.75
2018-09-04T11:19:56.593Z,46.62
2018-09-04T11:22:24.374Z,46.85
2018-09-04T11:24:52.116Z,48.43
2018-09-04T11:27:19.815Z,47.82
2018-09-04T11:29:47.516Z,48.23
2018-09-04T11:32:15.274Z,48.29
2018-09-04T11:34:43.019Z,48.62
2018-09-04T11:37:10.788Z,49.14
2018-09-04T11:39:38.548Z,49.28
2018-09-04T11:42:06.449Z,49.59
2018-09-04T11:44:34.163Z,49.38
2018-09-04T11:47:03.153Z,49.45
2018-09-04T11:49:30.728Z,48.97
2018-09-04T11:51:58.531Z,49.59
2018-09-04T11:54:26.328Z,50.08
2018-09-04T11:56:54.092Z,51.06
2018-09-04T11:59:21.914Z,51.67
2018-09-04T12:01:53.355Z,51.65
2018-09-04T12:04:21.072Z,52.54
2018-09-04T12:06:48.807Z,52.33
2018-09-04T12:09:16.715Z,52.63
2018-09-04T12:11:51.952Z,52.73
2018-09-04T12:14:19.685Z,52.67
2018-09-04T12:16:47.369Z,52.75
2018-09-04T12:19:15.147Z,52.94
2018-09-04T12:21:42.860Z,53.41
2018-09-04T12:24:10.632Z,53.44
2018-09-04T12:26:38.355Z,53.91
2018-09-04T12:29:06.433Z,53.62
2018-09-04T12:31:34.269Z,53.83
2018-09-04T12:34:02.171Z,54.17
2018-09-04T12:36:29.849Z,53.96
2018-09-04T12:38:57.741Z,54.05
2018-09-04T12:41:25.512Z,54.20
2018-09-04T12:43:53.248Z,54.18
2018-09-04T12:46:20.957Z,53.62
2018-09-04T12:48:50.732Z,54.80
2018-09-04T12:51:18.512Z,54.59
2018-09-04T12:53:46.469Z,54.16
2018-09-04T12:56:14.240Z,54.01
2018-09-04T12:58:41.997Z,54.58
2018-09-04T13:01:09.826Z,54.62
2018-09-04T13:03:37.616Z,55.28
2018-09-04T13:06:05.453Z,54.90
2018-09-04T13:08:33.643Z,55.52
2018-09-04T13:11:01.352Z,55.88
2018-09-04T13:13:29.164Z,56.10
2018-09-04T13:15:58.407Z,56.33
2018-09-04T13:18:27.125Z,56.46
2018-09-04T13:21:01.705Z,56.29
2018-09-04T13:23:29.923Z,56.45
2018-09-04T13:25:57.661Z,56.22
2018-09-04T13:28:25.484Z,56.62
2018-09-04T13:30:53.319Z,56.88
2018-09-04T13:33:21.013Z,57.38
2018-09-04T13:35:48.738Z,57.88
2018-09-04T13:38:16.503Z,57.64
2018-09-04T13:40:44.265Z,57.64
2018-09-04T13:43:12.036Z,57.48
2018-09-04T13:45:39.792Z,57.75
2018-09-04T13:48:07.527Z,57.62
2018-09-04T13:50:35.281Z,58.00
2018-09-04T13:53:03.043Z,58.79
2018-09-04T13:55:30.771Z,58.30
2018-09-04T13:57:58.508Z,58.94
2018-09-04T14:00:26.632Z,59.67
2018-09-04T14:02:54.415Z,59.39
2018-09-04T14:05:22.118Z,59.86
2018-09-04T14:07:49.823Z,58.63
2018-09-04T14:10:17.602Z,59.91
2018-09-04T14:12:45.321Z,59.52
2018-09-04T14:15:13.069Z,60.41
2018-09-04T14:17:40.828Z,60.15
2018-09-04T14:20:08.559Z,59.81
2018-09-04T14:22:36.339Z,60.01
2018-09-04T14:25:04.148Z,58.89
2018-09-04T14:27:31.863Z,59.30
2018-09-04T14:30:16.349Z,58.80
2018-09-04T14:32:27.392Z,57.86
2018-09-04T14:34:55.108Z,58.83
2018-09-04T14:37:22.856Z,59.09
2018-09-04T14:39:55.593Z,59.87
2018-09-04T14:42:18.320Z,59.11
2018-09-04T14:44:46.043Z,60.05
2018-09-04T14:47:13.873Z,60.06
2018-09-04T14:49:41.589Z,60.77
2018-09-04T14:52:09.284Z,60.27
2018-09-04T14:54:37.063Z,61.36
2018-09-04T14:57:04.848Z,61.13
2018-09-04T14:59:32.658Z,61.49
2018-09-04T15:02:00.428Z,61.28
2018-09-04T15:04:28.144Z,61.15
2018-09-04T15:06:55.860Z,62.13
2018-09-04T15:09:23.616Z,62.04
2018-09-04T15:11:51.319Z,61.73
2018-09-04T15:14:19.039Z,62.84
2018-09-04T15:16:46.969Z,62.66
2018-09-04T15:19:14.655Z,62.11
2018-09-04T15:21:42.389Z,62.53
2018-09-04T15:24:10.133Z,62.12
2018-09-04T15:26:37.837Z,62.65
2018-09-04T15:29:05.540Z,63.64
2018-09-04T15:31:33.344Z,64.20
2018-09-04T15:34:01.088Z,65.18
2018-09-04T15:36:28.919Z,65.52
2018-09-04T15:38:56.624Z,66.29
2018-09-04T15:41:24.359Z,65.87
2018-09-04T15:43:52.085Z,66.23
2018-09-04T15:46:19.810Z,68.44
2018-09-04T15:48:52.055Z,68.72
2018-09-04T15:51:19.760Z,69.43
2018-09-04T15:53:47.478Z,68.46
2018-09-04T15:56:15.265Z,68.57
2018-09-04T15:58:42.939Z,68.96
2018-09-04T16:01:10.655Z,69.98
2018-09-04T16:03:38.401Z,69.48
2018-09-04T16:06:05.892Z,69.99
2018-09-04T16:08:33.617Z,70.53
2018-09-04T16:11:01.393Z,70.89
2018-09-04T16:13:29.092Z,70.37
2018-09-04T16:15:56.845Z,71.66
2018-09-04T16:18:24.627Z,71.10
2018-09-04T16:20:52.354Z,71.93
2018-09-04T16:23:20.076Z,72.96
2018-09-04T16:25:47.880Z,71.78
2018-09-04T16:28:15.579Z,72.86
2018-09-04T16:30:43.312Z,72.91
2018-09-04T16:33:11.081Z,72.92
2018-09-04T16:35:38.883Z,74.82
2018-09-04T16:38:06.590Z,74.40
2018-09-04T16:40:41.011Z,75.09
2018-09-04T16:43:08.692Z,74.41
2018-09-04T16:45:36.400Z,75.02
2018-09-04T16:48:04.185Z,75.31
2018-09-04T16:50:31.900Z,74.49
2018-09-04T16:52:59.600Z,75.52
2018-09-04T16:55:27.312Z,74.61
2018-09-04T16:57:55.067Z,74.39
2018-09-04T17:00:22.773Z,74.35
2018-09-04T17:02:50.556Z,74.53
2018-09-04T17:05:18.277Z,74.90
2018-09-04T17:07:46.018Z,75.14
2018-09-04T17:10:13.748Z,75.70
2018-09-04T17:12:41.471Z,75.27
2018-09-04T17:15:09.264Z,76.35
2018-09-04T17:17:37.026Z,76.74
2018-09-04T17:20:05.026Z,76.02
2018-09-04T17:22:32.818Z,76.03
2018-09-04T17:25:00.580Z,75.72
2018-09-04T17:27:28.300Z,76.01
2018-09-04T17:29:55.997Z,76.49
2018-09-04T17:32:23.787Z,76.94
2018-09-04T17:34:51.499Z,77.56
2018-09-04T17:37:19.430Z,77.87
2018-09-04T17:39:47.452Z,78.09
2018-09-04T17:42:15.171Z,78.18
2018-09-04T17:44:42.927Z,78.37
2018-09-04T17:47:10.618Z,78.19
2018-09-04T17:49:38.380Z,78.33
2018-09-04T17:52:06.168Z,78.60
2018-09-04T17:54:33.940Z,78.87
2018-09-04T17:57:01.651Z,77.89
2018-09-04T17:59:29.343Z,78.31
2018-09-04T18:01:57.096Z,78.26
2018-09-04T18:04:24.824Z,78.09
2018-09-04T18:06:52.564Z,79.32
2018-09-04T18:09:20.287Z,78.75
2018-09-04T18:11:48.090Z,78.88
2018-09-04T18:14:15.800Z,78.34
2018-09-04T18:16:43.581Z,78.75
2018-09-04T18:19:11.328Z,78.24
2018-09-04T18:21:39.194Z,78.79
2018-09-04T18:24:07.036Z,79.80
2018-09-04T18:26:34.900Z,78.18
2018-09-04T18:29:02.664Z,78.92
2018-09-04T18:31:30.392Z,78.46
2018-09-04T18:33:58.128Z,78.89
2018-09-04T18:36:25.816Z,79.51
2018-09-04T18:38:53.688Z,79.64
2018-09-04T18:41:21.347Z,78.96
2018-09-04T18:43:49.068Z,78.92
2018-09-04T18:46:16.772Z,79.03
2018-09-04T18:48:44.595Z,79.44
2018-09-04T18:51:12.304Z,79.43
2018-09-04T18:53:40.085Z,79.58
2018-09-04T18:56:07.812Z,79.09
2018-09-04T18:58:35.561Z,79.53
2018-09-04T19:01:03.324Z,78.99
2018-09-04T19:03:31.044Z,79.25
2018-09-04T19:05:58.792Z,79.46
2018-09-04T19:08:26.509Z,79.60
2018-09-04T19:10:54.219Z,79.46
2018-09-04T19:13:22.006Z,79.35
2018-09-04T19:15:49.708Z,78.96
2018-09-04T19:18:17.449Z,78.98
2018-09-04T19:20:45.209Z,78.89
2018-09-04T19:23:12.918Z,78.57
2018-09-04T19:25:40.638Z,78.12
2018-09-04T19:28:08.372Z,77.77
2018-09-04T19:30:36.108Z,77.91
2018-09-04T19:33:03.879Z,77.78
2018-09-04T19:35:31.612Z,77.71
2018-09-04T19:37:59.331Z,77.64
2018-09-04T19:40:27.070Z,78.04
2018-09-04T19:42:54.778Z,77.52
2018-09-04T19:45:22.623Z,77.99
2018-09-04T19:47:50.383Z,77.93
2018-09-04T19:50:18.222Z,78.24
2018-09-04T19:52:45.934Z,78.16
2018-09-04T19:55:13.708Z,78.61
2018-09-04T19:57:41.363Z,78.63
2018-09-04T20:00:09.700Z,78.76
2018-09-04T20:02:37.448Z,79.02
2018-09-04T20:05:05.781Z,79.23
2018-09-04T20:07:33.498Z,80.22
2018-09-04T20:10:01.235Z,80.27
2018-09-04T20:12:28.944Z,79.25
2018-09-04T20:14:56.701Z,79.76
2018-09-04T20:17:24.468Z,80.14
2018-09-04T20:19:53.317Z,80.45
2018-09-04T20:22:21.058Z,81.21
2018-09-04T20:24:48.799Z,81.27
2018-09-04T20:27:16.502Z,81.63
2018-09-04T20:29:54.061Z,81.55
2018-09-04T20:32:21.868Z,81.13
2018-09-04T20:34:49.582Z,81.67
2018-09-04T20:37:17.440Z,80.86
2018-09-04T20:39:46.192Z,81.72
2018-09-04T20:42:13.968Z,81.67
2018-09-04T20:44:41.682Z,81.12
2018-09-04T20:47:09.495Z,81.51
2018-09-04T20:49:37.216Z,81.68
2018-09-04T20:52:04.956Z,81.67
2018-09-04T20:54:32.712Z,81.83
2018-09-04T20:57:35.800Z,81.70
2018-09-04T21:00:16.538Z,81.54
2018-09-04T21:02:55.700Z,82.39
2018-09-04T21:05:34.691Z,82.03
2018-09-04T21:08:17.998Z,81.95
2018-09-04T21:10:46.598Z,81.35
2018-09-04T21:13:14.760Z,81.26
2018-09-04T21:15:42.641Z,81.37
2018-09-04T21:18:10.523Z,81.46
2018-09-04T21:20:38.455Z,81.73
2018-09-04T21:23:06.327Z,82.22
2018-09-04T21:25:34.072Z,82.15
2018-09-04T21:28:01.798Z,81.84
2018-09-04T21:30:29.580Z,82.29
2018-09-04T21:32:57.320Z,82.12
2018-09-04T21:35:25.454Z,83.02
2018-09-04T21:37:53.253Z,82.87
2018-09-04T21:40:20.942Z,83.26
2018-09-04T21:42:48.689Z,82.86
2018-09-04T21:45:16.421Z,83.15
2018-09-04T21:47:44.150Z,82.89
2018-09-04T21:50:11.953Z,82.68
2018-09-04T21:52:39.679Z,83.13
2018-09-04T21:55:07.487Z,82.73
2018-09-04T21:57:35.216Z,82.78
2018-09-04T22:00:03.016Z,82.09
2018-09-04T22:02:30.704Z,82.69
2018-09-04T22:04:58.416Z,83.01
2018-09-04T22:07:26.126Z,83.51
2018-09-04T22:09:53.831Z,83.00
2018-09-04T22:12:21.615Z,82.67
2018-09-04T22:14:49.407Z,82.63
2018-09-04T22:17:17.106Z,83.00
2018-09-04T22:19:44.776Z,82.54
2018-09-04T22:22:13.126Z,83.33
2018-09-04T22:24:40.828Z,83.09
2018-09-04T22:27:09.712Z,83.13
2018-09-04T22:29:40.964Z,82.96
2018-09-04T22:32:08.995Z,83.02
2018-09-04T22:34:36.708Z,83.42
2018-09-04T22:37:04.460Z,83.17
2018-09-04T22:39:32.264Z,83.00
2018-09-04T22:41:59.962Z,83.94
2018-09-04T22:44:28.003Z,84.71
2018-09-04T22:46:55.750Z,84.06
2018-09-04T22:49:23.497Z,83.43
2018-09-04T22:51:51.409Z,83.94
2018-09-04T22:54:19.117Z,83.79
2018-09-04T22:56:46.870Z,84.12
2018-09-04T22:59:14.552Z,84.01
2018-09-04T23:01:42.252Z,84.79
2018-09-04T23:04:09.972Z,84.24
2018-09-04T23:06:37.713Z,84.33
2018-09-04T23:09:06.636Z,84.76
2018-09-04T23:11:34.347Z,83.92
2018-09-04T23:14:02.088Z,84.49
2018-09-04T23:16:29.921Z,85.28
2018-09-04T23:18:57.617Z,85.52
2018-09-04T23:21:25.302Z,84.39
2018-09-04T23:23:53.109Z,84.45
2018-09-04T23:26:20.875Z,84.58
2018-09-04T23:28:48.576Z,85.27
2018-09-04T23:31:16.288Z,84.07
2018-09-04T23:33:43.991Z,85.52
2018-09-04T23:36:18.508Z,85.28
2018-09-04T23:38:46.393Z,85.62
2018-09-04T23:41:14.096Z,86.13
2018-09-04T23:43:41.792Z,86.00
2018-09-04T23:46:09.478Z,86.38
2018-09-04T23:48:37.232Z,86.42
2018-09-04T23:51:05.091Z,86.05
2018-09-04T23:53:32.789Z,86.64
2018-09-04T23:56:00.519Z,86.29
2018-09-04T23:58:28.226Z,87.37
